sensor_id;sensor_type;location;lat;lon;timestamp;temperature;humidity
31575;DHT22;18182;1.328;103.810;2023-02-15T00:01:41;26.90;99.90
31575;DHT22;18182;1.328;103.810;2023-02-15T00:04:08;27.00;99.90
31575;DHT22;18182;1.328;103.810;2023-02-15T00:06:35;27.00;99.90
31575;DHT22;18182;1.328;103.810;2023-02-15T00:09:01;26.90;99.90
31575;DHT22;18182;1.328;103.810;2023-02-15T00:11:28;26.70;99.90
31575;DHT22;18182;1.328;103.810;2023-02-15T00:14:15;26.60;99.90
31575;DHT22;18182;1.328;103.810;2023-02-15T00:16:42;26.50;99.90
31575;DHT22;18182;1.328;103.810;2023-02-15T00:19:09;26.50;99.90
31575;DHT22;18182;1.328;103.810;2023-02-15T00:21:35;26.60;99.90
31575;DHT22;18182;1.328;103.810;2023-02-15T00:24:02;26.50;99.90
31575;DHT22;18182;1.328;103.810;2023-02-15T00:26:29;26.50;99.90
31575;DHT22;18182;1.328;103.810;2023-02-15T00:28:56;26.50;99.90
31575;DHT22;18182;1.328;103.810;2023-02-15T00:31:24;26.60;99.90
31575;DHT22;18182;1.328;103.810;2023-02-15T00:33:50;26.60;99.90
31575;DHT22;18182;1.328;103.810;2023-02-15T00:36:16;26.60;99.90
31575;DHT22;18182;1.328;103.810;2023-02-15T00:38:43;26.70;99.90
31575;DHT22;18182;1.328;103.810;2023-02-15T00:41:09;26.80;99.90
31575;DHT22;18182;1.328;103.810;2023-02-15T00:43:35;26.80;99.90
31575;DHT22;18182;1.328;103.810;2023-02-15T00:46:02;26.80;99.90
31575;DHT22;18182;1.328;103.810;2023-02-15T00:48:29;26.70;99.90
31575;DHT22;18182;1.328;103.810;2023-02-15T00:50:56;26.70;99.90
31575;DHT22;18182;1.328;103.810;2023-02-15T00:53:23;26.80;99.90
31575;DHT22;18182;1.328;103.810;2023-02-15T00:55:49;26.80;99.90
31575;DHT22;18182;1.328;103.810;2023-02-15T00:58:15;26.70;99.90
31575;DHT22;18182;1.328;103.810;2023-02-15T01:00:42;26.50;99.90
31575;DHT22;18182;1.328;103.810;2023-02-15T01:03:09;26.20;99.90
31575;DHT22;18182;1.328;103.810;2023-02-15T01:05:35;26.00;99.90
31575;DHT22;18182;1.328;103.810;2023-02-15T01:08:02;26.20;99.90
31575;DHT22;18182;1.328;103.810;2023-02-15T01:10:28;26.30;99.90
31575;DHT22;18182;1.328;103.810;2023-02-15T01:12:55;26.40;99.90
31575;DHT22;18182;1.328;103.810;2023-02-15T01:15:21;26.40;99.90
31575;DHT22;18182;1.328;103.810;2023-02-15T01:17:47;26.40;99.90
31575;DHT22;18182;1.328;103.810;2023-02-15T01:20:19;26.40;99.90
31575;DHT22;18182;1.328;103.810;2023-02-15T01:22:45;26.40;99.90
31575;DHT22;18182;1.328;103.810;2023-02-15T01:25:11;26.50;99.90
31575;DHT22;18182;1.328;103.810;2023-02-15T01:27:37;26.70;99.90
31575;DHT22;18182;1.328;103.810;2023-02-15T01:30:04;26.80;99.90
31575;DHT22;18182;1.328;103.810;2023-02-15T01:32:30;26.90;99.90
31575;DHT22;18182;1.328;103.810;2023-02-15T01:34:56;26.90;99.90
31575;DHT22;18182;1.328;103.810;2023-02-15T01:37:23;26.90;99.90
31575;DHT22;18182;1.328;103.810;2023-02-15T01:39:49;26.90;99.90
31575;DHT22;18182;1.328;103.810;2023-02-15T01:42:20;26.90;99.90
31575;DHT22;18182;1.328;103.810;2023-02-15T01:47:14;26.70;99.90
31575;DHT22;18182;1.328;103.810;2023-02-15T01:49:42;26.60;99.90
31575;DHT22;18182;1.328;103.810;2023-02-15T01:52:10;26.50;99.90
31575;DHT22;18182;1.328;103.810;2023-02-15T01:54:39;26.60;99.90
31575;DHT22;18182;1.328;103.810;2023-02-15T01:57:10;26.60;99.90
31575;DHT22;18182;1.328;103.810;2023-02-15T01:59:37;26.70;99.90
31575;DHT22;18182;1.328;103.810;2023-02-15T02:02:04;26.70;99.90
31575;DHT22;18182;1.328;103.810;2023-02-15T02:04:41;26.70;99.90
31575;DHT22;18182;1.328;103.810;2023-02-15T02:07:10;26.70;99.90
31575;DHT22;18182;1.328;103.810;2023-02-15T02:09:38;26.80;99.90
31575;DHT22;18182;1.328;103.810;2023-02-15T02:12:04;26.90;99.90
31575;DHT22;18182;1.328;103.810;2023-02-15T02:14:30;26.90;99.90
31575;DHT22;18182;1.328;103.810;2023-02-15T02:40:22;27.40;99.90
31575;DHT22;18182;1.328;103.810;2023-02-15T02:45:57;27.50;99.90
31575;DHT22;18182;1.328;103.810;2023-02-15T02:48:27;27.50;99.90
31575;DHT22;18182;1.328;103.810;2023-02-15T02:50:55;27.60;99.90
31575;DHT22;18182;1.328;103.810;2023-02-15T02:53:21;27.50;99.90
31575;DHT22;18182;1.328;103.810;2023-02-15T02:55:49;27.50;99.90
31575;DHT22;18182;1.328;103.810;2023-02-15T02:58:20;27.50;99.90
31575;DHT22;18182;1.328;103.810;2023-02-15T03:00:57;27.50;99.90
31575;DHT22;18182;1.328;103.810;2023-02-15T03:05:57;27.50;99.90
31575;DHT22;18182;1.328;103.810;2023-02-15T03:08:26;27.50;99.90
31575;DHT22;18182;1.328;103.810;2023-02-15T03:10:56;27.50;99.90
31575;DHT22;18182;1.328;103.810;2023-02-15T03:13:23;27.50;99.90
31575;DHT22;18182;1.328;103.810;2023-02-15T03:15:50;27.40;99.90
31575;DHT22;18182;1.328;103.810;2023-02-15T03:18:43;27.20;99.90
31575;DHT22;18182;1.328;103.810;2023-02-15T03:21:10;27.30;99.90
31575;DHT22;18182;1.328;103.810;2023-02-15T03:23:54;27.30;99.90
31575;DHT22;18182;1.328;103.810;2023-02-15T03:26:23;27.30;99.90
31575;DHT22;18182;1.328;103.810;2023-02-15T03:28:50;27.40;99.90
31575;DHT22;18182;1.328;103.810;2023-02-15T03:31:19;27.50;99.90
31575;DHT22;18182;1.328;103.810;2023-02-15T03:33:50;27.60;99.90
31575;DHT22;18182;1.328;103.810;2023-02-15T03:37:00;27.60;99.90
31575;DHT22;18182;1.328;103.810;2023-02-15T03:39:12;27.60;99.90
31575;DHT22;18182;1.328;103.810;2023-02-15T03:41:43;27.70;99.90
31575;DHT22;18182;1.328;103.810;2023-02-15T03:44:15;27.80;99.90
31575;DHT22;18182;1.328;103.810;2023-02-15T03:46:44;27.80;99.90
31575;DHT22;18182;1.328;103.810;2023-02-15T03:51:39;27.90;99.90
31575;DHT22;18182;1.328;103.810;2023-02-15T03:54:20;27.90;99.90
31575;DHT22;18182;1.328;103.810;2023-02-15T03:57:06;27.90;99.90
31575;DHT22;18182;1.328;103.810;2023-02-15T03:59:51;27.90;99.90
31575;DHT22;18182;1.328;103.810;2023-02-15T04:02:57;27.90;99.90
31575;DHT22;18182;1.328;103.810;2023-02-15T04:05:24;28.00;99.90
31575;DHT22;18182;1.328;103.810;2023-02-15T04:07:50;27.90;99.90
31575;DHT22;18182;1.328;103.810;2023-02-15T04:10:16;28.00;99.90
31575;DHT22;18182;1.328;103.810;2023-02-15T04:13:01;28.10;99.90
31575;DHT22;18182;1.328;103.810;2023-02-15T04:15:27;28.10;99.90
31575;DHT22;18182;1.328;103.810;2023-02-15T04:18:12;28.10;99.90
31575;DHT22;18182;1.328;103.810;2023-02-15T04:20:38;28.10;99.90
31575;DHT22;18182;1.328;103.810;2023-02-15T04:23:22;28.10;99.90
31575;DHT22;18182;1.328;103.810;2023-02-15T04:26:06;28.10;99.90
31575;DHT22;18182;1.328;103.810;2023-02-15T04:28:32;28.10;99.90
31575;DHT22;18182;1.328;103.810;2023-02-15T04:30:58;28.10;99.90
31575;DHT22;18182;1.328;103.810;2023-02-15T04:33:24;28.10;99.90
31575;DHT22;18182;1.328;103.810;2023-02-15T04:35:50;28.00;99.90
31575;DHT22;18182;1.328;103.810;2023-02-15T04:38:16;27.90;99.90
31575;DHT22;18182;1.328;103.810;2023-02-15T04:40:43;27.90;99.90
31575;DHT22;18182;1.328;103.810;2023-02-15T04:43:09;27.90;99.90
31575;DHT22;18182;1.328;103.810;2023-02-15T04:45:35;27.80;99.90
31575;DHT22;18182;1.328;103.810;2023-02-15T04:48:01;27.70;99.90
31575;DHT22;18182;1.328;103.810;2023-02-15T04:50:27;27.70;99.90
31575;DHT22;18182;1.328;103.810;2023-02-15T04:52:53;27.80;99.90
31575;DHT22;18182;1.328;103.810;2023-02-15T04:55:19;27.70;99.90
31575;DHT22;18182;1.328;103.810;2023-02-15T04:57:45;27.60;99.90
31575;DHT22;18182;1.328;103.810;2023-02-15T05:00:12;27.60;99.90
31575;DHT22;18182;1.328;103.810;2023-02-15T05:02:38;27.60;99.90
31575;DHT22;18182;1.328;103.810;2023-02-15T05:05:04;27.80;99.90
31575;DHT22;18182;1.328;103.810;2023-02-15T05:07:30;27.90;99.90
31575;DHT22;18182;1.328;103.810;2023-02-15T05:09:56;28.00;99.90
31575;DHT22;18182;1.328;103.810;2023-02-15T05:12:22;28.10;99.90
31575;DHT22;18182;1.328;103.810;2023-02-15T05:14:48;28.10;99.90
31575;DHT22;18182;1.328;103.810;2023-02-15T05:17:14;28.10;99.90
31575;DHT22;18182;1.328;103.810;2023-02-15T05:19:41;28.10;99.90
31575;DHT22;18182;1.328;103.810;2023-02-15T05:22:07;28.20;99.90
31575;DHT22;18182;1.328;103.810;2023-02-15T05:24:33;28.20;99.90
31575;DHT22;18182;1.328;103.810;2023-02-15T05:27:17;28.30;99.90
31575;DHT22;18182;1.328;103.810;2023-02-15T05:30:01;28.30;99.90
31575;DHT22;18182;1.328;103.810;2023-02-15T05:32:27;28.30;99.90
31575;DHT22;18182;1.328;103.810;2023-02-15T05:34:54;28.30;99.90
31575;DHT22;18182;1.328;103.810;2023-02-15T05:37:20;28.40;99.90
31575;DHT22;18182;1.328;103.810;2023-02-15T05:39:46;28.40;99.90
31575;DHT22;18182;1.328;103.810;2023-02-15T05:42:12;28.40;99.90
31575;DHT22;18182;1.328;103.810;2023-02-15T05:44:38;28.40;99.90
31575;DHT22;18182;1.328;103.810;2023-02-15T05:47:04;28.50;99.90
31575;DHT22;18182;1.328;103.810;2023-02-15T05:49:32;28.40;99.90
31575;DHT22;18182;1.328;103.810;2023-02-15T05:51:58;28.40;99.90
31575;DHT22;18182;1.328;103.810;2023-02-15T05:54:25;28.50;99.90
31575;DHT22;18182;1.328;103.810;2023-02-15T05:56:51;28.50;99.90
31575;DHT22;18182;1.328;103.810;2023-02-15T05:59:17;28.50;99.90
31575;DHT22;18182;1.328;103.810;2023-02-15T06:01:43;28.50;99.90
31575;DHT22;18182;1.328;103.810;2023-02-15T06:04:09;28.60;99.90
31575;DHT22;18182;1.328;103.810;2023-02-15T06:06:37;28.60;99.90
31575;DHT22;18182;1.328;103.810;2023-02-15T06:09:03;28.70;99.90
31575;DHT22;18182;1.328;103.810;2023-02-15T06:11:30;28.80;99.90
31575;DHT22;18182;1.328;103.810;2023-02-15T06:13:56;28.70;99.90
31575;DHT22;18182;1.328;103.810;2023-02-15T06:16:22;28.80;99.90
31575;DHT22;18182;1.328;103.810;2023-02-15T06:18:48;28.80;99.90
31575;DHT22;18182;1.328;103.810;2023-02-15T06:21:14;28.80;99.90
31575;DHT22;18182;1.328;103.810;2023-02-15T06:23:40;28.70;99.90
31575;DHT22;18182;1.328;103.810;2023-02-15T06:26:06;28.70;99.90
31575;DHT22;18182;1.328;103.810;2023-02-15T06:28:33;28.90;99.90
31575;DHT22;18182;1.328;103.810;2023-02-15T06:30:59;29.00;99.90
31575;DHT22;18182;1.328;103.810;2023-02-15T06:33:25;29.10;99.90
31575;DHT22;18182;1.328;103.810;2023-02-15T06:35:51;29.10;99.90
31575;DHT22;18182;1.328;103.810;2023-02-15T06:38:18;29.00;99.90
31575;DHT22;18182;1.328;103.810;2023-02-15T06:40:44;29.00;99.90
31575;DHT22;18182;1.328;103.810;2023-02-15T06:43:10;29.00;99.90
31575;DHT22;18182;1.328;103.810;2023-02-15T06:45:36;29.00;99.90
31575;DHT22;18182;1.328;103.810;2023-02-15T06:48:02;29.00;99.90
31575;DHT22;18182;1.328;103.810;2023-02-15T06:50:28;29.00;99.90
31575;DHT22;18182;1.328;103.810;2023-02-15T06:52:57;28.90;99.90
31575;DHT22;18182;1.328;103.810;2023-02-15T06:55:24;28.90;99.90
31575;DHT22;18182;1.328;103.810;2023-02-15T06:57:50;28.90;99.90
31575;DHT22;18182;1.328;103.810;2023-02-15T07:00:16;28.90;99.90
31575;DHT22;18182;1.328;103.810;2023-02-15T07:02:44;28.90;99.90
31575;DHT22;18182;1.328;103.810;2023-02-15T07:05:10;28.90;99.90
31575;DHT22;18182;1.328;103.810;2023-02-15T07:07:36;28.90;99.90
31575;DHT22;18182;1.328;103.810;2023-02-15T07:10:02;29.00;99.90
31575;DHT22;18182;1.328;103.810;2023-02-15T07:12:28;29.00;99.90
31575;DHT22;18182;1.328;103.810;2023-02-15T07:15:14;29.10;99.90
31575;DHT22;18182;1.328;103.810;2023-02-15T07:17:40;29.10;99.90
31575;DHT22;18182;1.328;103.810;2023-02-15T07:20:11;29.10;99.90
31575;DHT22;18182;1.328;103.810;2023-02-15T07:22:37;29.10;99.90
31575;DHT22;18182;1.328;103.810;2023-02-15T07:25:04;29.10;99.90
31575;DHT22;18182;1.328;103.810;2023-02-15T07:27:31;29.10;99.90
31575;DHT22;18182;1.328;103.810;2023-02-15T07:29:57;29.00;99.90
31575;DHT22;18182;1.328;103.810;2023-02-15T07:32:25;29.00;99.90
31575;DHT22;18182;1.328;103.810;2023-02-15T07:34:52;29.00;99.90
31575;DHT22;18182;1.328;103.810;2023-02-15T07:37:18;29.00;99.90
31575;DHT22;18182;1.328;103.810;2023-02-15T07:39:44;29.10;99.90
31575;DHT22;18182;1.328;103.810;2023-02-15T07:42:10;29.00;99.90
31575;DHT22;18182;1.328;103.810;2023-02-15T07:44:37;29.10;99.90
31575;DHT22;18182;1.328;103.810;2023-02-15T07:47:03;29.10;99.90
31575;DHT22;18182;1.328;103.810;2023-02-15T07:49:29;29.10;99.90
31575;DHT22;18182;1.328;103.810;2023-02-15T07:51:55;29.10;99.90
31575;DHT22;18182;1.328;103.810;2023-02-15T07:54:21;29.10;99.90
31575;DHT22;18182;1.328;103.810;2023-02-15T07:56:47;29.10;99.90
31575;DHT22;18182;1.328;103.810;2023-02-15T07:59:13;29.10;99.90
31575;DHT22;18182;1.328;103.810;2023-02-15T08:01:39;29.00;99.90
31575;DHT22;18182;1.328;103.810;2023-02-15T08:04:06;29.00;99.90
31575;DHT22;18182;1.328;103.810;2023-02-15T08:06:34;29.00;99.90
31575;DHT22;18182;1.328;103.810;2023-02-15T08:09:02;29.00;99.90
31575;DHT22;18182;1.328;103.810;2023-02-15T08:11:30;28.90;99.90
31575;DHT22;18182;1.328;103.810;2023-02-15T08:18:59;29.00;99.90
31575;DHT22;18182;1.328;103.810;2023-02-15T08:21:26;29.00;99.90
31575;DHT22;18182;1.328;103.810;2023-02-15T08:23:53;29.00;99.90
31575;DHT22;18182;1.328;103.810;2023-02-15T08:26:20;29.10;99.90
31575;DHT22;18182;1.328;103.810;2023-02-15T08:28:46;29.10;99.90
31575;DHT22;18182;1.328;103.810;2023-02-15T08:31:14;29.10;99.90
31575;DHT22;18182;1.328;103.810;2023-02-15T08:33:41;29.10;99.90
31575;DHT22;18182;1.328;103.810;2023-02-15T08:36:08;29.10;99.90
31575;DHT22;18182;1.328;103.810;2023-02-15T08:38:34;29.10;99.90
31575;DHT22;18182;1.328;103.810;2023-02-15T08:41:10;29.10;99.90
31575;DHT22;18182;1.328;103.810;2023-02-15T08:43:36;29.00;99.90
31575;DHT22;18182;1.328;103.810;2023-02-15T08:46:04;29.00;99.90
31575;DHT22;18182;1.328;103.810;2023-02-15T08:48:30;29.00;99.90
31575;DHT22;18182;1.328;103.810;2023-02-15T08:50:56;29.10;99.90
31575;DHT22;18182;1.328;103.810;2023-02-15T08:53:22;29.10;99.90
31575;DHT22;18182;1.328;103.810;2023-02-15T08:55:55;29.00;99.90
31575;DHT22;18182;1.328;103.810;2023-02-15T08:58:22;29.10;99.90
31575;DHT22;18182;1.328;103.810;2023-02-15T09:00:48;29.10;99.90
31575;DHT22;18182;1.328;103.810;2023-02-15T09:03:14;29.10;99.90
31575;DHT22;18182;1.328;103.810;2023-02-15T09:05:40;29.10;99.90
31575;DHT22;18182;1.328;103.810;2023-02-15T09:08:06;29.10;99.90
31575;DHT22;18182;1.328;103.810;2023-02-15T09:10:33;29.10;99.90
31575;DHT22;18182;1.328;103.810;2023-02-15T09:12:59;29.20;99.90
31575;DHT22;18182;1.328;103.810;2023-02-15T09:15:25;29.20;99.90
31575;DHT22;18182;1.328;103.810;2023-02-15T09:17:51;29.20;99.90
31575;DHT22;18182;1.328;103.810;2023-02-15T09:20:17;29.20;99.90
31575;DHT22;18182;1.328;103.810;2023-02-15T09:22:44;29.20;99.90
31575;DHT22;18182;1.328;103.810;2023-02-15T09:25:10;29.30;99.90
31575;DHT22;18182;1.328;103.810;2023-02-15T09:27:38;29.30;99.90
31575;DHT22;18182;1.328;103.810;2023-02-15T09:30:05;29.30;99.90
31575;DHT22;18182;1.328;103.810;2023-02-15T09:32:31;29.30;99.90
31575;DHT22;18182;1.328;103.810;2023-02-15T09:34:58;29.30;99.90
31575;DHT22;18182;1.328;103.810;2023-02-15T09:37:24;29.30;99.90
31575;DHT22;18182;1.328;103.810;2023-02-15T09:39:50;29.30;99.90
31575;DHT22;18182;1.328;103.810;2023-02-15T10:05:27;29.30;99.90
31575;DHT22;18182;1.328;103.810;2023-02-15T10:13:18;29.30;99.90
31575;DHT22;18182;1.328;103.810;2023-02-15T10:16:01;29.30;99.90
31575;DHT22;18182;1.328;103.810;2023-02-15T10:26:04;29.10;99.90
31575;DHT22;18182;1.328;103.810;2023-02-15T10:28:45;29.10;99.90
31575;DHT22;18182;1.328;103.810;2023-02-15T10:33:46;29.00;99.90
31575;DHT22;18182;1.328;103.810;2023-02-15T10:38:49;29.10;99.90
31575;DHT22;18182;1.328;103.810;2023-02-15T10:43:56;29.20;99.90
31575;DHT22;18182;1.328;103.810;2023-02-15T10:51:40;29.30;99.90
31575;DHT22;18182;1.328;103.810;2023-02-15T10:56:54;29.20;99.90
31575;DHT22;18182;1.328;103.810;2023-02-15T10:59:39;29.20;99.90
31575;DHT22;18182;1.328;103.810;2023-02-15T11:02:14;29.10;99.90
31575;DHT22;18182;1.328;103.810;2023-02-15T11:04:58;29.10;99.90
31575;DHT22;18182;1.328;103.810;2023-02-15T11:10:02;29.00;99.90
31575;DHT22;18182;1.328;103.810;2023-02-15T11:12:30;29.00;99.90
31575;DHT22;18182;1.328;103.810;2023-02-15T11:17:46;28.90;99.90
31575;DHT22;18182;1.328;103.810;2023-02-15T11:20:23;28.90;99.90
31575;DHT22;18182;1.328;103.810;2023-02-15T11:22:50;28.90;99.90
31575;DHT22;18182;1.328;103.810;2023-02-15T11:27:48;28.80;99.90
31575;DHT22;18182;1.328;103.810;2023-02-15T11:30:17;28.70;99.90
31575;DHT22;18182;1.328;103.810;2023-02-15T11:32:45;28.60;99.90
31575;DHT22;18182;1.328;103.810;2023-02-15T11:40:12;28.50;99.90
31575;DHT22;18182;1.328;103.810;2023-02-15T11:42:40;28.40;99.90
31575;DHT22;18182;1.328;103.810;2023-02-15T11:45:26;28.40;99.90
31575;DHT22;18182;1.328;103.810;2023-02-15T11:47:53;28.40;99.90
31575;DHT22;18182;1.328;103.810;2023-02-15T11:50:22;28.50;99.90
31575;DHT22;18182;1.328;103.810;2023-02-15T11:52:49;28.50;99.90
31575;DHT22;18182;1.328;103.810;2023-02-15T11:55:19;28.50;99.90
31575;DHT22;18182;1.328;103.810;2023-02-15T11:57:56;28.50;99.90
31575;DHT22;18182;1.328;103.810;2023-02-15T12:00:36;28.50;99.90
31575;DHT22;18182;1.328;103.810;2023-02-15T12:03:07;28.40;99.90
31575;DHT22;18182;1.328;103.810;2023-02-15T12:05:35;28.40;99.90
31575;DHT22;18182;1.328;103.810;2023-02-15T12:08:13;28.40;99.90
31575;DHT22;18182;1.328;103.810;2023-02-15T12:10:55;28.40;99.90
31575;DHT22;18182;1.328;103.810;2023-02-15T12:13:22;28.40;99.90
31575;DHT22;18182;1.328;103.810;2023-02-15T12:15:48;28.40;99.90
31575;DHT22;18182;1.328;103.810;2023-02-15T12:18:19;28.40;99.90
31575;DHT22;18182;1.328;103.810;2023-02-15T12:20:46;28.30;99.90
31575;DHT22;18182;1.328;103.810;2023-02-15T12:23:12;28.30;99.90
31575;DHT22;18182;1.328;103.810;2023-02-15T12:25:41;28.30;99.90
31575;DHT22;18182;1.328;103.810;2023-02-15T12:31:09;28.30;99.90
31575;DHT22;18182;1.328;103.810;2023-02-15T12:33:37;28.30;99.90
31575;DHT22;18182;1.328;103.810;2023-02-15T12:36:17;28.30;99.90
31575;DHT22;18182;1.328;103.810;2023-02-15T12:38:49;28.30;99.90
31575;DHT22;18182;1.328;103.810;2023-02-15T12:41:27;28.30;99.90
31575;DHT22;18182;1.328;103.810;2023-02-15T12:46:38;28.40;99.90
31575;DHT22;18182;1.328;103.810;2023-02-15T12:49:17;28.40;99.90
31575;DHT22;18182;1.328;103.810;2023-02-15T12:51:48;28.40;99.90
31575;DHT22;18182;1.328;103.810;2023-02-15T12:56:50;28.50;99.90
31575;DHT22;18182;1.328;103.810;2023-02-15T12:59:17;28.50;99.90
31575;DHT22;18182;1.328;103.810;2023-02-15T13:01:46;28.50;99.90
31575;DHT22;18182;1.328;103.810;2023-02-15T13:06:46;28.50;99.90
31575;DHT22;18182;1.328;103.810;2023-02-15T13:09:33;28.50;99.90
31575;DHT22;18182;1.328;103.810;2023-02-15T13:14:45;28.50;99.90
31575;DHT22;18182;1.328;103.810;2023-02-15T13:17:13;28.40;99.90
31575;DHT22;18182;1.328;103.810;2023-02-15T13:19:52;28.30;99.90
31575;DHT22;18182;1.328;103.810;2023-02-15T13:22:25;28.20;99.90
31575;DHT22;18182;1.328;103.810;2023-02-15T13:24:55;28.10;99.90
31575;DHT22;18182;1.328;103.810;2023-02-15T13:27:23;28.10;99.90
31575;DHT22;18182;1.328;103.810;2023-02-15T13:29:51;28.10;99.90
31575;DHT22;18182;1.328;103.810;2023-02-15T13:34:44;28.00;99.90
31575;DHT22;18182;1.328;103.810;2023-02-15T13:40:20;28.00;99.90
31575;DHT22;18182;1.328;103.810;2023-02-15T13:42:50;27.90;99.90
31575;DHT22;18182;1.328;103.810;2023-02-15T13:48:14;27.90;99.90
31575;DHT22;18182;1.328;103.810;2023-02-15T13:56:16;27.90;99.90
31575;DHT22;18182;1.328;103.810;2023-02-15T14:01:20;27.90;99.90
31575;DHT22;18182;1.328;103.810;2023-02-15T14:12:07;27.90;99.90
31575;DHT22;18182;1.328;103.810;2023-02-15T14:19:43;28.00;99.90
31575;DHT22;18182;1.328;103.810;2023-02-15T14:27:27;27.90;99.90
31575;DHT22;18182;1.328;103.810;2023-02-15T14:30:02;27.90;99.90
31575;DHT22;18182;1.328;103.810;2023-02-15T14:32:36;27.90;99.90
31575;DHT22;18182;1.328;103.810;2023-02-15T14:35:05;27.90;99.90
31575;DHT22;18182;1.328;103.810;2023-02-15T14:48:31;27.90;99.90
31575;DHT22;18182;1.328;103.810;2023-02-15T14:50:58;27.90;99.90
31575;DHT22;18182;1.328;103.810;2023-02-15T14:59:25;27.90;99.90
31575;DHT22;18182;1.328;103.810;2023-02-15T15:01:33;27.90;99.90
31575;DHT22;18182;1.328;103.810;2023-02-15T15:04:00;27.90;99.90
31575;DHT22;18182;1.328;103.810;2023-02-15T15:06:31;27.90;99.90
31575;DHT22;18182;1.328;103.810;2023-02-15T15:09:10;27.90;99.90
31575;DHT22;18182;1.328;103.810;2023-02-15T15:11:37;27.90;99.90
31575;DHT22;18182;1.328;103.810;2023-02-15T15:14:04;27.90;99.90
31575;DHT22;18182;1.328;103.810;2023-02-15T15:18:56;27.90;99.90
31575;DHT22;18182;1.328;103.810;2023-02-15T15:24:09;27.90;99.90
31575;DHT22;18182;1.328;103.810;2023-02-15T15:26:36;27.90;99.90
31575;DHT22;18182;1.328;103.810;2023-02-15T15:29:06;27.90;99.90
31575;DHT22;18182;1.328;103.810;2023-02-15T15:31:43;27.90;99.90
31575;DHT22;18182;1.328;103.810;2023-02-15T15:34:20;27.90;99.90
31575;DHT22;18182;1.328;103.810;2023-02-15T15:42:29;27.90;99.90
31575;DHT22;18182;1.328;103.810;2023-02-15T15:47:58;27.90;99.90
31575;DHT22;18182;1.328;103.810;2023-02-15T15:50:28;27.90;99.90
31575;DHT22;18182;1.328;103.810;2023-02-15T15:52:55;27.90;99.90
31575;DHT22;18182;1.328;103.810;2023-02-15T15:55:23;27.80;99.90
31575;DHT22;18182;1.328;103.810;2023-02-15T15:57:51;27.80;99.90
31575;DHT22;18182;1.328;103.810;2023-02-15T16:00:26;27.90;99.90
31575;DHT22;18182;1.328;103.810;2023-02-15T16:02:54;27.90;99.90
31575;DHT22;18182;1.328;103.810;2023-02-15T16:05:23;27.80;99.90
31575;DHT22;18182;1.328;103.810;2023-02-15T16:07:49;27.80;99.90
31575;DHT22;18182;1.328;103.810;2023-02-15T16:10:26;27.80;99.90
31575;DHT22;18182;1.328;103.810;2023-02-15T16:12:53;27.80;99.90
31575;DHT22;18182;1.328;103.810;2023-02-15T16:15:22;27.80;99.90
31575;DHT22;18182;1.328;103.810;2023-02-15T16:17:51;27.80;99.90
31575;DHT22;18182;1.328;103.810;2023-02-15T16:20:26;27.80;99.90
31575;DHT22;18182;1.328;103.810;2023-02-15T16:23:08;27.70;99.90
31575;DHT22;18182;1.328;103.810;2023-02-15T16:25:42;27.70;99.90
31575;DHT22;18182;1.328;103.810;2023-02-15T16:28:11;27.70;99.90
31575;DHT22;18182;1.328;103.810;2023-02-15T16:30:38;27.70;99.90
31575;DHT22;18182;1.328;103.810;2023-02-15T16:33:09;27.70;99.90
31575;DHT22;18182;1.328;103.810;2023-02-15T16:35:36;27.70;99.90
31575;DHT22;18182;1.328;103.810;2023-02-15T16:38:03;27.60;99.90
31575;DHT22;18182;1.328;103.810;2023-02-15T16:40:41;27.70;99.90
31575;DHT22;18182;1.328;103.810;2023-02-15T16:43:11;27.60;99.90
31575;DHT22;18182;1.328;103.810;2023-02-15T16:45:38;27.60;99.90
31575;DHT22;18182;1.328;103.810;2023-02-15T16:48:06;27.60;99.90
31575;DHT22;18182;1.328;103.810;2023-02-15T16:50:34;27.60;99.90
31575;DHT22;18182;1.328;103.810;2023-02-15T16:53:01;27.70;99.90
31575;DHT22;18182;1.328;103.810;2023-02-15T16:55:28;27.70;99.90
31575;DHT22;18182;1.328;103.810;2023-02-15T16:57:59;27.70;99.90
31575;DHT22;18182;1.328;103.810;2023-02-15T17:00:28;27.60;99.90
31575;DHT22;18182;1.328;103.810;2023-02-15T17:03:03;27.60;99.90
31575;DHT22;18182;1.328;103.810;2023-02-15T17:05:31;27.60;99.90
31575;DHT22;18182;1.328;103.810;2023-02-15T17:10:33;27.60;99.90
31575;DHT22;18182;1.328;103.810;2023-02-15T17:13:02;27.60;99.90
31575;DHT22;18182;1.328;103.810;2023-02-15T17:15:36;27.60;99.90
31575;DHT22;18182;1.328;103.810;2023-02-15T17:20:28;27.60;99.90
31575;DHT22;18182;1.328;103.810;2023-02-15T17:22:54;27.60;99.90
31575;DHT22;18182;1.328;103.810;2023-02-15T17:25:24;27.60;99.90
31575;DHT22;18182;1.328;103.810;2023-02-15T17:27:54;27.60;99.90
31575;DHT22;18182;1.328;103.810;2023-02-15T17:30:26;27.50;99.90
31575;DHT22;18182;1.328;103.810;2023-02-15T17:32:55;27.50;99.90
31575;DHT22;18182;1.328;103.810;2023-02-15T17:35:22;27.50;99.90
31575;DHT22;18182;1.328;103.810;2023-02-15T17:37:54;27.50;99.90
31575;DHT22;18182;1.328;103.810;2023-02-15T17:40:32;27.60;99.90
31575;DHT22;18182;1.328;103.810;2023-02-15T17:42:59;27.50;99.90
31575;DHT22;18182;1.328;103.810;2023-02-15T17:45:30;27.50;99.90
31575;DHT22;18182;1.328;103.810;2023-02-15T17:47:57;27.50;99.90
31575;DHT22;18182;1.328;103.810;2023-02-15T17:50:25;27.50;99.90
31575;DHT22;18182;1.328;103.810;2023-02-15T17:52:52;27.50;99.90
31575;DHT22;18182;1.328;103.810;2023-02-15T17:55:19;27.50;99.90
31575;DHT22;18182;1.328;103.810;2023-02-15T17:58:05;27.50;99.90
31575;DHT22;18182;1.328;103.810;2023-02-15T18:00:31;27.50;99.90
31575;DHT22;18182;1.328;103.810;2023-02-15T18:03:17;27.60;99.90
31575;DHT22;18182;1.328;103.810;2023-02-15T18:06:01;27.60;99.90
31575;DHT22;18182;1.328;103.810;2023-02-15T18:08:47;27.60;99.90
31575;DHT22;18182;1.328;103.810;2023-02-15T18:11:31;27.50;99.90
31575;DHT22;18182;1.328;103.810;2023-02-15T18:14:07;27.50;99.90
31575;DHT22;18182;1.328;103.810;2023-02-15T18:16:35;27.50;99.90
31575;DHT22;18182;1.328;103.810;2023-02-15T18:19:02;27.50;99.90
31575;DHT22;18182;1.328;103.810;2023-02-15T18:21:30;27.50;99.90
31575;DHT22;18182;1.328;103.810;2023-02-15T18:23:56;27.50;99.90
31575;DHT22;18182;1.328;103.810;2023-02-15T18:26:23;27.40;99.90
31575;DHT22;18182;1.328;103.810;2023-02-15T18:28:49;27.40;99.90
31575;DHT22;18182;1.328;103.810;2023-02-15T18:31:16;27.40;99.90
31575;DHT22;18182;1.328;103.810;2023-02-15T18:33:46;27.40;99.90
31575;DHT22;18182;1.328;103.810;2023-02-15T18:36:13;27.40;99.90